createdAt,value
2017-06-19T00:02:21.617Z,61.70
2017-06-19T00:04:50.097Z,62.30
2017-06-19T00:07:18.378Z,62.40
2017-06-19T00:09:45.898Z,62.30
2017-06-19T00:12:13.465Z,62.60
2017-06-19T00:14:41.014Z,63.10
2017-06-19T00:17:09.343Z,64.10
2017-06-19T00:19:36.945Z,64.00
2017-06-19T00:22:04.655Z,63.00
2017-06-19T00:24:33.103Z,62.70
2017-06-19T00:27:00.669Z,62.60
2017-06-19T00:29:28.183Z,61.90
2017-06-19T00:31:55.733Z,61.60
2017-06-19T00:34:23.406Z,63.10
2017-06-19T00:36:50.928Z,63.40
2017-06-19T00:39:18.515Z,64.10
2017-06-19T00:41:46.196Z,64.60
2017-06-19T00:44:13.701Z,64.00
2017-06-19T00:46:41.211Z,63.20
2017-06-19T00:49:08.800Z,62.60
2017-06-19T00:51:36.307Z,62.80
2017-06-19T00:54:04.589Z,62.80
2017-06-19T00:56:32.396Z,62.80
2017-06-19T00:58:59.908Z,63.80
2017-06-19T01:01:28.186Z,64.30
2017-06-19T01:03:56.544Z,63.40
2017-06-19T01:06:24.857Z,64.40
2017-06-19T01:08:52.367Z,64.30
2017-06-19T01:11:19.924Z,62.70
2017-06-19T01:13:47.431Z,65.60
2017-06-19T01:16:14.935Z,65.10
2017-06-19T01:18:42.528Z,64.60
2017-06-19T01:21:10.071Z,65.90
2017-06-19T01:23:37.633Z,65.80
2017-06-19T01:26:05.248Z,65.60
2017-06-19T01:28:32.768Z,65.40
2017-06-19T01:31:00.331Z,65.90
2017-06-19T01:33:27.898Z,66.20
2017-06-19T01:35:56.186Z,65.50
2017-06-19T01:38:23.701Z,65.50
2017-06-19T01:40:51.264Z,65.60
2017-06-19T01:43:18.780Z,65.40
2017-06-19T01:45:46.304Z,65.10
2017-06-19T01:48:13.885Z,66.30
2017-06-19T01:50:41.615Z,63.50
2017-06-19T01:53:09.141Z,66.70
2017-06-19T01:55:36.689Z,65.50
2017-06-19T01:58:04.199Z,65.10
2017-06-19T02:00:31.778Z,66.90
2017-06-19T02:02:59.388Z,67.60
2017-06-19T02:05:26.964Z,68.00
2017-06-19T02:07:54.471Z,68.10
2017-06-19T02:10:22.031Z,67.20
2017-06-19T02:12:49.551Z,67.50
2017-06-19T02:15:17.071Z,66.30
2017-06-19T02:17:44.628Z,67.80
2017-06-19T02:20:12.147Z,67.70
2017-06-19T02:22:39.669Z,67.40
2017-06-19T02:25:07.288Z,68.00
2017-06-19T02:27:35.615Z,67.60
2017-06-19T02:30:03.135Z,67.50
2017-06-19T02:32:30.698Z,68.20
2017-06-19T02:34:58.220Z,68.20
2017-06-19T02:37:25.755Z,68.00
2017-06-19T02:39:53.316Z,67.70
2017-06-19T02:42:20.854Z,67.70
2017-06-19T02:44:48.503Z,67.40
2017-06-19T02:47:16.087Z,67.50
2017-06-19T02:49:43.643Z,68.50
2017-06-19T02:52:11.168Z,68.10
2017-06-19T02:54:39.697Z,68.90
2017-06-19T02:57:07.221Z,68.70
2017-06-19T02:59:34.739Z,68.60
2017-06-19T03:02:02.286Z,68.30
2017-06-19T03:04:29.798Z,67.40
2017-06-19T03:06:57.355Z,67.80
2017-06-19T03:09:25.636Z,68.20
2017-06-19T03:11:53.915Z,68.90
2017-06-19T03:14:22.245Z,68.20
2017-06-19T03:16:49.896Z,67.90
2017-06-19T03:19:17.419Z,67.60
2017-06-19T03:21:44.977Z,68.10
2017-06-19T03:24:12.502Z,68.60
2017-06-19T03:26:40.028Z,68.70
2017-06-19T03:29:07.588Z,68.40
2017-06-19T03:31:35.209Z,69.70
2017-06-19T03:34:02.736Z,68.40
2017-06-19T03:36:30.330Z,67.60
2017-06-19T03:38:58.915Z,67.60
2017-06-19T03:41:27.211Z,68.10
2017-06-19T03:43:55.659Z,68.00
2017-06-19T03:46:23.962Z,71.10
2017-06-19T03:48:51.573Z,70.10
2017-06-19T03:51:19.195Z,69.20
2017-06-19T03:53:46.724Z,69.50
2017-06-19T03:56:14.285Z,67.60
2017-06-19T03:58:41.871Z,67.20
2017-06-19T04:01:09.418Z,66.60
2017-06-19T04:03:37.081Z,66.70
2017-06-19T04:06:04.588Z,66.90
2017-06-19T04:08:32.112Z,67.40
2017-06-19T04:10:59.663Z,67.00
2017-06-19T04:13:27.260Z,66.50
2017-06-19T04:15:54.807Z,65.70
2017-06-19T04:18:22.341Z,65.50
2017-06-19T04:20:49.938Z,64.70
2017-06-19T04:23:17.515Z,64.90
2017-06-19T04:25:45.115Z,66.20
2017-06-19T04:28:12.772Z,65.70
2017-06-19T04:30:40.433Z,63.70
2017-06-19T04:33:07.956Z,63.20
2017-06-19T04:35:35.476Z,62.40
2017-06-19T04:38:03.815Z,62.20
2017-06-19T04:40:31.391Z,62.20
2017-06-19T04:42:58.905Z,61.80
2017-06-19T04:45:26.472Z,62.00
2017-06-19T04:47:54.030Z,60.80
2017-06-19T04:50:21.561Z,60.60
2017-06-19T04:52:49.090Z,60.00
2017-06-19T04:55:16.692Z,60.00
2017-06-19T04:57:44.265Z,59.70
2017-06-19T05:00:11.837Z,59.80
2017-06-19T05:02:39.431Z,60.60
2017-06-19T05:05:06.944Z,59.80
2017-06-19T05:07:34.452Z,58.90
2017-06-19T05:10:02.004Z,58.90
2017-06-19T05:12:29.512Z,58.90
2017-06-19T05:14:57.060Z,59.10
2017-06-19T05:17:25.341Z,58.90
2017-06-19T05:19:52.920Z,58.30
2017-06-19T05:22:20.437Z,58.50
2017-06-19T05:24:47.954Z,58.20
2017-06-19T05:27:15.532Z,58.70
2017-06-19T05:29:43.073Z,59.10
2017-06-19T05:32:10.579Z,58.50
2017-06-19T05:34:38.174Z,58.40
2017-06-19T05:37:05.679Z,58.20
2017-06-19T05:39:33.198Z,58.30
2017-06-19T05:42:00.768Z,57.80
2017-06-19T05:44:28.272Z,58.10
2017-06-19T05:46:55.785Z,59.00
2017-06-19T05:49:23.357Z,57.40
2017-06-19T05:51:50.892Z,57.10
2017-06-19T05:54:18.403Z,57.50
2017-06-19T05:56:45.961Z,56.70
2017-06-19T05:59:13.783Z,56.70
2017-06-19T06:01:41.353Z,57.30
2017-06-19T06:04:08.913Z,58.40
2017-06-19T06:06:36.436Z,56.10
2017-06-19T06:09:04.772Z,56.10
2017-06-19T06:11:32.360Z,56.10
2017-06-19T06:13:59.895Z,55.30
2017-06-19T06:16:27.460Z,55.20
2017-06-19T06:18:55.026Z,55.30
2017-06-19T06:21:22.549Z,55.30
2017-06-19T06:23:50.078Z,54.40
2017-06-19T06:26:18.392Z,54.40
2017-06-19T06:28:45.902Z,54.40
2017-06-19T06:31:13.415Z,54.20
2017-06-19T06:33:41.079Z,54.30
2017-06-19T06:36:08.615Z,54.10
2017-06-19T06:38:36.181Z,52.50
2017-06-19T06:41:04.098Z,53.00
2017-06-19T06:43:31.619Z,53.00
2017-06-19T06:46:00.065Z,52.60
2017-06-19T06:48:28.422Z,51.90
2017-06-19T06:50:55.961Z,51.80
2017-06-19T06:53:23.492Z,51.90
2017-06-19T06:55:51.057Z,53.10
2017-06-19T06:58:18.592Z,52.00
2017-06-19T07:00:46.275Z,50.80
2017-06-19T07:03:13.868Z,52.10
2017-06-19T07:05:41.455Z,50.70
2017-06-19T07:08:09.001Z,50.60
2017-06-19T07:10:39.635Z,49.20
2017-06-19T07:13:07.173Z,49.80
2017-06-19T07:15:34.693Z,49.40
2017-06-19T07:18:02.503Z,49.30
2017-06-19T07:20:30.039Z,49.80
2017-06-19T07:22:57.638Z,49.30
2017-06-19T07:25:25.204Z,49.90
2017-06-19T07:27:52.752Z,49.60
2017-06-19T07:30:20.332Z,47.70
2017-06-19T07:32:47.860Z,47.60
2017-06-19T07:35:15.427Z,49.30
2017-06-19T07:37:43.041Z,48.80
2017-06-19T07:40:10.689Z,45.80
2017-06-19T07:42:38.448Z,46.80
2017-06-19T07:45:06.100Z,45.00
2017-06-19T07:47:33.723Z,46.70
2017-06-19T07:50:01.317Z,46.90
2017-06-19T07:52:28.994Z,45.20
2017-06-19T07:54:56.545Z,45.60
2017-06-19T07:57:24.095Z,46.60
2017-06-19T07:59:51.825Z,44.90
2017-06-19T08:02:19.368Z,46.80
2017-06-19T08:04:46.890Z,45.90
2017-06-19T08:07:14.537Z,48.50
2017-06-19T08:09:42.070Z,44.30
2017-06-19T08:12:09.671Z,43.30
2017-06-19T08:14:37.300Z,44.30
2017-06-19T08:17:04.833Z,43.90
2017-06-19T08:19:32.481Z,43.70
2017-06-19T08:22:06.731Z,45.00
2017-06-19T08:24:34.322Z,44.80
2017-06-19T08:27:01.999Z,44.50
2017-06-19T08:29:29.838Z,43.30
2017-06-19T08:31:57.382Z,43.20
2017-06-19T08:34:24.961Z,43.30
2017-06-19T08:36:52.556Z,44.10
2017-06-19T08:39:20.117Z,43.00
2017-06-19T08:41:47.702Z,43.10
2017-06-19T08:44:16.088Z,42.10
2017-06-19T08:46:43.672Z,42.00
2017-06-19T08:49:11.282Z,43.30
2017-06-19T08:51:38.823Z,43.00
2017-06-19T08:54:07.205Z,41.70
2017-06-19T08:56:34.821Z,41.60
2017-06-19T08:59:02.598Z,42.30
2017-06-19T09:01:30.171Z,42.00
2017-06-19T09:03:57.793Z,41.70
2017-06-19T09:06:25.356Z,42.70
2017-06-19T09:08:52.896Z,40.80
2017-06-19T09:11:20.484Z,40.00
2017-06-19T09:13:48.039Z,40.00
2017-06-19T09:16:16.599Z,38.20
2017-06-19T09:18:44.254Z,38.20
2017-06-19T09:21:11.793Z,40.20
2017-06-19T09:23:39.513Z,40.50
2017-06-19T09:26:07.105Z,41.80
2017-06-19T09:28:34.895Z,40.40
2017-06-19T09:31:02.501Z,39.30
2017-06-19T09:33:30.198Z,37.90
2017-06-19T09:35:57.738Z,37.50
2017-06-19T09:38:25.308Z,39.90
2017-06-19T09:40:53.016Z,37.60
2017-06-19T09:43:20.639Z,38.30
2017-06-19T09:45:48.264Z,39.70
2017-06-19T09:48:16.781Z,40.10
2017-06-19T09:50:44.493Z,40.10
2017-06-19T09:53:12.121Z,41.20
2017-06-19T09:55:39.702Z,38.40
2017-06-19T09:58:07.383Z,39.60
2017-06-19T10:00:34.918Z,36.90
2017-06-19T10:03:02.512Z,36.40
2017-06-19T10:05:30.249Z,36.80
2017-06-19T10:07:57.782Z,40.00
2017-06-19T10:10:25.663Z,39.00
2017-06-19T10:12:53.284Z,37.30
2017-06-19T10:15:20.834Z,37.10
2017-06-19T10:17:49.262Z,38.70
2017-06-19T10:20:16.812Z,38.60
2017-06-19T10:22:44.434Z,38.60
2017-06-19T10:25:12.776Z,36.20
2017-06-19T10:27:40.473Z,36.20
2017-06-19T10:30:08.324Z,37.40
2017-06-19T10:32:35.905Z,38.10
2017-06-19T10:35:04.521Z,37.10
2017-06-19T10:37:32.064Z,37.10
2017-06-19T10:39:59.671Z,36.00
2017-06-19T10:42:27.247Z,35.00
2017-06-19T10:44:54.793Z,36.10
2017-06-19T10:47:22.373Z,36.80
2017-06-19T10:49:49.926Z,35.80
2017-06-19T10:52:17.467Z,36.20
2017-06-19T10:54:45.397Z,36.20
2017-06-19T10:57:12.936Z,36.30
2017-06-19T10:59:41.265Z,34.40
2017-06-19T11:02:08.924Z,34.30
2017-06-19T11:04:36.496Z,35.50
2017-06-19T11:07:04.020Z,34.80
2017-06-19T11:09:31.833Z,34.90
2017-06-19T11:11:59.393Z,36.90
2017-06-19T11:14:27.564Z,34.60
2017-06-19T11:16:55.853Z,34.10
2017-06-19T11:19:23.384Z,36.50
2017-06-19T11:21:50.901Z,34.80
2017-06-19T11:24:18.499Z,37.40
2017-06-19T11:26:46.827Z,36.10
2017-06-19T11:29:14.344Z,35.40
2017-06-19T11:31:41.956Z,35.40
2017-06-19T11:34:09.493Z,33.00
2017-06-19T11:36:37.048Z,35.60
2017-06-19T11:39:04.593Z,33.00
2017-06-19T11:41:32.220Z,33.40
2017-06-19T11:43:59.852Z,35.40
2017-06-19T11:46:27.388Z,34.40
2017-06-19T11:48:54.942Z,34.70
2017-06-19T11:51:22.534Z,34.90
2017-06-19T11:53:50.052Z,33.40
2017-06-19T11:56:17.588Z,32.30
2017-06-19T11:58:45.172Z,31.90
2017-06-19T12:01:12.755Z,33.60
2017-06-19T12:03:40.276Z,33.80
2017-06-19T12:06:07.877Z,34.20
2017-06-19T12:08:35.409Z,33.00
2017-06-19T12:11:02.937Z,33.80
2017-06-19T12:13:31.332Z,34.50
2017-06-19T12:15:58.904Z,34.20
2017-06-19T12:18:26.875Z,32.50
2017-06-19T12:20:54.493Z,32.10
2017-06-19T12:23:22.055Z,33.30
2017-06-19T12:25:49.583Z,33.30
2017-06-19T12:28:17.223Z,32.70
2017-06-19T12:30:44.744Z,32.70
2017-06-19T12:33:13.037Z,33.60
2017-06-19T12:35:40.657Z,33.40
2017-06-19T12:38:08.213Z,35.90
2017-06-19T12:40:35.748Z,36.50
2017-06-19T12:43:03.352Z,35.20
2017-06-19T12:45:30.881Z,34.50
2017-06-19T12:47:58.429Z,34.00
2017-06-19T12:50:26.064Z,35.80
2017-06-19T12:52:53.596Z,34.50
2017-06-19T12:55:21.129Z,36.20
2017-06-19T12:57:49.503Z,37.20
2017-06-19T13:00:17.079Z,37.10
2017-06-19T13:02:44.623Z,37.40
2017-06-19T13:05:12.274Z,37.20
2017-06-19T13:07:39.791Z,38.00
2017-06-19T13:10:07.386Z,39.00
2017-06-19T13:12:34.927Z,38.70
2017-06-19T13:15:02.455Z,38.70
2017-06-19T13:17:30.036Z,38.50
2017-06-19T13:19:57.565Z,38.10
2017-06-19T13:22:25.091Z,38.80
2017-06-19T13:24:53.476Z,37.60
2017-06-19T13:27:21.036Z,37.50
2017-06-19T13:29:49.444Z,39.80
2017-06-19T13:32:17.062Z,39.70
2017-06-19T13:34:45.352Z,39.30
2017-06-19T13:37:12.930Z,39.20
2017-06-19T13:39:40.564Z,40.20
2017-06-19T13:42:08.869Z,39.20
2017-06-19T13:44:36.472Z,39.10
2017-06-19T13:47:04.101Z,39.70
2017-06-19T13:49:31.625Z,39.70
2017-06-19T13:51:59.171Z,39.50
2017-06-19T13:54:26.799Z,39.00
2017-06-19T13:56:54.320Z,39.40
2017-06-19T13:59:21.867Z,40.30
2017-06-19T14:01:49.512Z,40.30
2017-06-19T14:04:17.032Z,40.00
2017-06-19T14:06:44.569Z,39.60
2017-06-19T14:09:12.133Z,39.80
2017-06-19T14:11:39.674Z,38.40
2017-06-19T14:14:07.189Z,39.50
2017-06-19T14:16:34.779Z,40.30
2017-06-19T14:19:02.454Z,40.30
2017-06-19T14:21:29.991Z,38.80
2017-06-19T14:23:57.564Z,39.20
2017-06-19T14:26:25.095Z,39.00
2017-06-19T14:28:52.610Z,40.00
2017-06-19T14:31:20.180Z,39.50
2017-06-19T14:33:47.736Z,38.90
2017-06-19T14:36:15.292Z,40.20
2017-06-19T14:38:46.165Z,39.70
2017-06-19T14:41:13.903Z,40.70
2017-06-19T14:43:42.242Z,39.80
2017-06-19T14:46:09.760Z,39.10
2017-06-19T14:48:37.299Z,39.30
2017-06-19T14:51:05.668Z,39.80
2017-06-19T14:53:33.209Z,39.70
2017-06-19T14:56:00.729Z,39.50
2017-06-19T14:58:28.284Z,40.30
2017-06-19T15:00:55.857Z,39.10
2017-06-19T15:03:23.387Z,39.50
2017-06-19T15:05:50.960Z,39.70
2017-06-19T15:08:18.509Z,39.30
2017-06-19T15:10:46.070Z,39.10
2017-06-19T15:13:13.675Z,40.40
2017-06-19T15:15:41.205Z,41.10
2017-06-19T15:18:08.739Z,40.00
2017-06-19T15:20:36.314Z,40.40
2017-06-19T15:23:03.826Z,40.10
2017-06-19T15:25:32.156Z,40.10
2017-06-19T15:27:59.735Z,40.00
2017-06-19T15:30:27.705Z,39.90
2017-06-19T15:32:55.239Z,39.90
2017-06-19T15:35:22.896Z,40.90
2017-06-19T15:37:50.424Z,40.50
2017-06-19T15:40:17.984Z,40.30
2017-06-19T15:42:45.514Z,39.00
2017-06-19T15:45:13.037Z,39.70
2017-06-19T15:47:40.616Z,40.40
2017-06-19T15:50:08.179Z,37.50
2017-06-19T15:52:35.727Z,36.90
2017-06-19T15:55:03.492Z,38.30
2017-06-19T15:57:31.004Z,39.00
2017-06-19T15:59:58.533Z,41.90
2017-06-19T16:02:26.117Z,40.70
2017-06-19T16:04:53.646Z,40.70
2017-06-19T16:07:21.948Z,39.80
2017-06-19T16:09:49.676Z,39.70
2017-06-19T16:12:17.976Z,39.70
2017-06-19T16:14:45.509Z,39.60
2017-06-19T16:17:13.084Z,39.20
2017-06-19T16:19:40.660Z,39.00
2017-06-19T16:22:08.224Z,38.00
2017-06-19T16:24:35.793Z,38.70
2017-06-19T16:27:03.327Z,38.20
2017-06-19T16:29:30.848Z,39.10
2017-06-19T16:31:58.412Z,38.60
2017-06-19T16:34:25.925Z,40.20
2017-06-19T16:36:53.507Z,38.60
2017-06-19T16:39:21.066Z,40.90
2017-06-19T16:41:48.703Z,40.50
2017-06-19T16:44:16.240Z,39.90
2017-06-19T16:46:43.844Z,40.90
2017-06-19T16:49:11.436Z,41.00
2017-06-19T16:51:39.779Z,39.40
2017-06-19T16:54:07.387Z,39.40
2017-06-19T16:56:34.914Z,40.60
2017-06-19T16:59:02.532Z,40.70
2017-06-19T17:01:30.091Z,40.90
2017-06-19T17:03:57.633Z,40.60
2017-06-19T17:06:25.202Z,41.80
2017-06-19T17:08:52.782Z,42.40
2017-06-19T17:11:20.323Z,44.60
2017-06-19T17:13:47.840Z,42.20
2017-06-19T17:16:16.195Z,43.90
2017-06-19T17:18:43.730Z,43.80
2017-06-19T17:21:12.027Z,43.10
2017-06-19T17:23:39.641Z,43.60
2017-06-19T17:26:07.182Z,42.40
2017-06-19T17:28:34.708Z,41.70
2017-06-19T17:31:03.033Z,42.30
2017-06-19T17:33:30.580Z,41.80
2017-06-19T17:35:58.849Z,40.50
2017-06-19T17:38:26.436Z,40.60
2017-06-19T17:40:53.964Z,40.90
2017-06-19T17:43:21.485Z,40.50
2017-06-19T17:45:49.040Z,41.90
2017-06-19T17:48:16.564Z,42.10
2017-06-19T17:50:44.106Z,40.70
2017-06-19T17:53:11.659Z,41.20
2017-06-19T17:55:39.181Z,40.50
2017-06-19T17:58:07.480Z,41.00
2017-06-19T18:00:35.034Z,41.20
2017-06-19T18:03:02.627Z,42.40
2017-06-19T18:05:30.253Z,41.20
2017-06-19T18:07:57.780Z,42.20
2017-06-19T18:10:25.308Z,40.60
2017-06-19T18:12:52.876Z,40.70
2017-06-19T18:15:20.414Z,40.00
2017-06-19T18:17:47.957Z,40.20
2017-06-19T18:20:15.522Z,39.90
2017-06-19T18:22:43.083Z,42.10
2017-06-19T18:25:10.640Z,40.20
2017-06-19T18:27:38.255Z,41.50
2017-06-19T18:30:09.011Z,40.60
2017-06-19T18:32:36.572Z,40.40
2017-06-19T18:35:04.156Z,40.70
2017-06-19T18:37:31.681Z,40.70
2017-06-19T18:39:59.208Z,40.80
2017-06-19T18:42:26.775Z,40.70
2017-06-19T18:44:55.068Z,41.80
2017-06-19T18:47:23.290Z,41.70
2017-06-19T18:49:50.801Z,41.80
2017-06-19T18:52:18.336Z,41.50
2017-06-19T18:54:45.942Z,43.90
2017-06-19T18:57:13.460Z,48.10
2017-06-19T18:59:41.013Z,50.00
2017-06-19T19:02:08.601Z,52.00
2017-06-19T19:04:36.127Z,53.80
2017-06-19T19:07:04.444Z,53.30
2017-06-19T19:09:32.096Z,53.20
2017-06-19T19:11:59.933Z,54.40
2017-06-19T19:14:27.908Z,55.50
2017-06-19T19:16:55.536Z,55.40
2017-06-19T19:19:23.163Z,55.80
2017-06-19T19:21:52.329Z,57.10
2017-06-19T19:24:20.129Z,57.10
2017-06-19T19:26:47.727Z,55.10
2017-06-19T19:29:15.285Z,56.40
2017-06-19T19:31:42.850Z,56.40
2017-06-19T19:34:10.392Z,57.90
2017-06-19T19:36:37.980Z,57.60
2017-06-19T19:39:05.584Z,56.80
2017-06-19T19:41:33.154Z,57.80
2017-06-19T19:44:00.702Z,56.70
2017-06-19T19:46:28.305Z,57.20
2017-06-19T19:48:56.164Z,58.00
2017-06-19T19:51:23.856Z,57.40
2017-06-19T19:53:51.434Z,57.90
2017-06-19T19:56:19.011Z,58.60
2017-06-19T19:58:46.556Z,58.30
2017-06-19T20:01:14.120Z,59.60
2017-06-19T20:03:41.651Z,59.00
2017-06-19T20:06:09.179Z,59.90
2017-06-19T20:08:36.750Z,58.80
2017-06-19T20:11:04.284Z,60.40
2017-06-19T20:13:31.800Z,60.30
2017-06-19T20:15:59.390Z,61.20
2017-06-19T20:18:27.080Z,59.90
2017-06-19T20:20:54.617Z,60.20
2017-06-19T20:23:22.226Z,60.20
2017-06-19T20:25:49.768Z,60.20
2017-06-19T20:28:17.301Z,59.60
2017-06-19T20:30:44.930Z,60.20
2017-06-19T20:33:13.231Z,60.30
2017-06-19T20:35:40.755Z,59.70
2017-06-19T20:38:08.312Z,59.60
2017-06-19T20:40:35.871Z,60.00
2017-06-19T20:43:03.468Z,59.90
2017-06-19T20:45:31.039Z,60.40
2017-06-19T20:47:59.486Z,60.60
2017-06-19T20:50:27.023Z,58.90
2017-06-19T20:52:54.627Z,57.10
2017-06-19T20:55:22.140Z,59.10
2017-06-19T20:57:49.678Z,59.30
2017-06-19T21:00:17.256Z,60.20
2017-06-19T21:02:44.803Z,58.90
2017-06-19T21:05:12.345Z,59.90
2017-06-19T21:07:39.919Z,59.80
2017-06-19T21:10:07.445Z,60.00
2017-06-19T21:12:34.988Z,58.40
2017-06-19T21:15:02.559Z,59.30
2017-06-19T21:17:30.140Z,59.00
2017-06-19T21:19:57.657Z,59.50
2017-06-19T21:22:25.995Z,61.50
2017-06-19T21:24:53.512Z,61.30
2017-06-19T21:27:21.070Z,60.70
2017-06-19T21:29:48.662Z,61.20
2017-06-19T21:32:16.180Z,59.50
2017-06-19T21:34:43.713Z,60.30
2017-06-19T21:37:11.427Z,59.80
2017-06-19T21:39:39.038Z,59.20
2017-06-19T21:42:07.331Z,58.60
2017-06-19T21:44:34.957Z,58.60
2017-06-19T21:47:02.536Z,60.00
2017-06-19T21:49:30.092Z,58.20
2017-06-19T21:51:58.427Z,59.60
2017-06-19T21:54:25.971Z,59.60
2017-06-19T21:56:53.497Z,57.70
2017-06-19T21:59:21.396Z,58.10
2017-06-19T22:01:48.940Z,60.90
2017-06-19T22:04:16.552Z,60.20
2017-06-19T22:06:44.108Z,61.10
2017-06-19T22:09:11.680Z,62.00
2017-06-19T22:11:39.974Z,61.60
2017-06-19T22:14:07.553Z,61.60
2017-06-19T22:16:35.091Z,61.80
2017-06-19T22:19:02.616Z,59.00
2017-06-19T22:21:35.853Z,59.70
2017-06-19T22:24:03.418Z,61.50
2017-06-19T22:26:30.952Z,60.10
2017-06-19T22:28:58.540Z,60.40
2017-06-19T22:31:26.113Z,61.30
2017-06-19T22:33:53.644Z,61.90
2017-06-19T22:36:21.263Z,62.50
2017-06-19T22:38:48.803Z,61.30
2017-06-19T22:41:16.328Z,62.50
2017-06-19T22:46:16.835Z,63.90
2017-06-19T22:48:44.415Z,61.40
2017-06-19T22:51:11.958Z,62.90
2017-06-19T22:53:39.494Z,61.90
2017-06-19T22:56:07.867Z,63.40
2017-06-19T22:58:35.419Z,63.30
2017-06-19T23:01:02.955Z,64.10
2017-06-19T23:03:30.519Z,66.20
2017-06-19T23:05:58.046Z,65.10
2017-06-19T23:08:25.564Z,65.10
2017-06-19T23:10:53.139Z,64.70
2017-06-19T23:13:20.657Z,63.40
2017-06-19T23:15:48.209Z,65.10
2017-06-19T23:18:15.837Z,65.70
2017-06-19T23:20:43.379Z,65.30
2017-06-19T23:23:10.976Z,64.70
2017-06-19T23:25:38.555Z,66.20
2017-06-19T23:28:06.091Z,65.30
2017-06-19T23:30:33.675Z,64.00
2017-06-19T23:33:01.278Z,65.90
2017-06-19T23:35:28.801Z,65.80
2017-06-19T23:37:56.320Z,66.70
2017-06-19T23:40:23.943Z,66.30
2017-06-19T23:42:51.467Z,65.50
2017-06-19T23:45:18.984Z,65.70
2017-06-19T23:47:46.595Z,65.00
2017-06-19T23:50:14.868Z,65.10
2017-06-19T23:52:42.383Z,65.00
2017-06-19T23:55:09.948Z,65.50
2017-06-19T23:57:37.468Z,66.10
